sensor_id;sensor_type;location;lat;lon;timestamp;P1;durP1;ratioP1;P2;durP2;ratioP2
60973;SDS011;46846;51.528;5.076;2023-06-22T00:01:50;355.17;;;337.63;;
60973;SDS011;46846;51.528;5.076;2023-06-22T00:04:15;366.67;;;348.63;;
60973;SDS011;46846;51.528;5.076;2023-06-22T00:06:40;359.27;;;341.48;;
60973;SDS011;46846;51.528;5.076;2023-06-22T00:09:06;366.17;;;347.98;;
60973;SDS011;46846;51.528;5.076;2023-06-22T00:11:32;367.10;;;349.05;;
60973;SDS011;46846;51.528;5.076;2023-06-22T00:13:58;366.45;;;348.40;;
60973;SDS011;46846;51.528;5.076;2023-06-22T00:16:24;373.75;;;355.17;;
60973;SDS011;46846;51.528;5.076;2023-06-22T00:18:49;373.17;;;354.80;;
60973;SDS011;46846;51.528;5.076;2023-06-22T00:21:14;366.55;;;348.15;;
60973;SDS011;46846;51.528;5.076;2023-06-22T00:23:40;368.65;;;350.55;;
60973;SDS011;46846;51.528;5.076;2023-06-22T00:26:06;354.73;;;337.20;;
60973;SDS011;46846;51.528;5.076;2023-06-22T00:28:32;356.83;;;339.15;;
60973;SDS011;46846;51.528;5.076;2023-06-22T00:30:57;359.30;;;341.63;;
60973;SDS011;46846;51.528;5.076;2023-06-22T00:33:23;358.23;;;340.45;;
60973;SDS011;46846;51.528;5.076;2023-06-22T00:35:48;360.48;;;342.67;;
60973;SDS011;46846;51.528;5.076;2023-06-22T00:38:17;355.10;;;337.15;;
60973;SDS011;46846;51.528;5.076;2023-06-22T00:40:43;375.75;;;357.35;;
60973;SDS011;46846;51.528;5.076;2023-06-22T00:43:09;354.15;;;336.58;;
60973;SDS011;46846;51.528;5.076;2023-06-22T00:45:34;343.40;;;326.38;;
60973;SDS011;46846;51.528;5.076;2023-06-22T00:48:00;357.10;;;339.50;;
60973;SDS011;46846;51.528;5.076;2023-06-22T00:50:27;362.00;;;344.05;;
60973;SDS011;46846;51.528;5.076;2023-06-22T00:52:58;352.33;;;334.85;;
60973;SDS011;46846;51.528;5.076;2023-06-22T00:55:26;353.98;;;336.20;;
60973;SDS011;46846;51.528;5.076;2023-06-22T00:57:52;357.20;;;339.42;;
60973;SDS011;46846;51.528;5.076;2023-06-22T01:00:22;359.67;;;341.80;;
60973;SDS011;46846;51.528;5.076;2023-06-22T01:02:49;359.63;;;341.50;;
60973;SDS011;46846;51.528;5.076;2023-06-22T01:05:17;354.10;;;336.50;;
60973;SDS011;46846;51.528;5.076;2023-06-22T01:13:06;347.73;;;330.27;;
60973;SDS011;46846;51.528;5.076;2023-06-22T01:16:26;363.38;;;345.42;;
60973;SDS011;46846;51.528;5.076;2023-06-22T01:18:35;350.95;;;333.58;;
60973;SDS011;46846;51.528;5.076;2023-06-22T01:21:05;361.02;;;343.23;;
60973;SDS011;46846;51.528;5.076;2023-06-22T01:23:55;348.40;;;331.00;;
60973;SDS011;46846;51.528;5.076;2023-06-22T01:26:59;352.85;;;335.40;;
60973;SDS011;46846;51.528;5.076;2023-06-22T01:29:30;349.23;;;331.83;;
60973;SDS011;46846;51.528;5.076;2023-06-22T01:32:00;358.27;;;340.50;;
60973;SDS011;46846;51.528;5.076;2023-06-22T01:34:29;340.42;;;323.40;;
60973;SDS011;46846;51.528;5.076;2023-06-22T01:36:56;345.10;;;327.88;;
60973;SDS011;46846;51.528;5.076;2023-06-22T01:39:24;342.45;;;325.35;;
60973;SDS011;46846;51.528;5.076;2023-06-22T01:41:50;355.85;;;338.15;;
60973;SDS011;46846;51.528;5.076;2023-06-22T01:44:16;353.38;;;335.55;;
60973;SDS011;46846;51.528;5.076;2023-06-22T01:46:42;338.48;;;321.08;;
60973;SDS011;46846;51.528;5.076;2023-06-22T01:49:08;367.05;;;348.52;;
60973;SDS011;46846;51.528;5.076;2023-06-22T01:51:34;344.15;;;326.75;;
60973;SDS011;46846;51.528;5.076;2023-06-22T01:54:01;341.98;;;323.88;;
60973;SDS011;46846;51.528;5.076;2023-06-22T01:56:27;357.17;;;339.38;;
60973;SDS011;46846;51.528;5.076;2023-06-22T01:59:09;355.45;;;337.63;;
60973;SDS011;46846;51.528;5.076;2023-06-22T02:01:53;355.80;;;338.10;;
60973;SDS011;46846;51.528;5.076;2023-06-22T02:04:26;351.80;;;334.15;;
60973;SDS011;46846;51.528;5.076;2023-06-22T02:06:56;349.98;;;332.30;;
60973;SDS011;46846;51.528;5.076;2023-06-22T02:09:24;341.88;;;324.52;;
60973;SDS011;46846;51.528;5.076;2023-06-22T02:11:54;335.70;;;318.67;;
60973;SDS011;46846;51.528;5.076;2023-06-22T02:14:21;340.60;;;323.60;;
60973;SDS011;46846;51.528;5.076;2023-06-22T02:16:47;353.55;;;335.85;;
60973;SDS011;46846;51.528;5.076;2023-06-22T02:19:14;341.90;;;324.98;;
60973;SDS011;46846;51.528;5.076;2023-06-22T02:21:41;345.98;;;328.63;;
60973;SDS011;46846;51.528;5.076;2023-06-22T02:24:06;346.30;;;328.77;;
60973;SDS011;46846;51.528;5.076;2023-06-22T02:26:32;346.92;;;329.75;;
60973;SDS011;46846;51.528;5.076;2023-06-22T02:28:57;349.45;;;331.95;;
60973;SDS011;46846;51.528;5.076;2023-06-22T02:31:23;354.13;;;336.48;;
60973;SDS011;46846;51.528;5.076;2023-06-22T02:33:55;339.75;;;322.52;;
60973;SDS011;46846;51.528;5.076;2023-06-22T02:36:22;354.23;;;336.60;;
60973;SDS011;46846;51.528;5.076;2023-06-22T02:38:51;349.63;;;332.08;;
60973;SDS011;46846;51.528;5.076;2023-06-22T02:41:17;345.90;;;328.50;;
60973;SDS011;46846;51.528;5.076;2023-06-22T02:43:45;350.13;;;332.67;;
60973;SDS011;46846;51.528;5.076;2023-06-22T02:46:11;352.75;;;335.05;;
60973;SDS011;46846;51.528;5.076;2023-06-22T02:48:38;344.98;;;327.67;;
60973;SDS011;46846;51.528;5.076;2023-06-22T02:51:06;354.00;;;336.20;;
60973;SDS011;46846;51.528;5.076;2023-06-22T02:53:32;350.17;;;332.73;;
60973;SDS011;46846;51.528;5.076;2023-06-22T02:55:57;338.15;;;320.98;;
60973;SDS011;46846;51.528;5.076;2023-06-22T02:58:23;329.27;;;312.65;;
60973;SDS011;46846;51.528;5.076;2023-06-22T03:00:49;340.02;;;322.75;;
60973;SDS011;46846;51.528;5.076;2023-06-22T03:03:18;333.35;;;316.40;;
60973;SDS011;46846;51.528;5.076;2023-06-22T03:05:44;336.25;;;319.17;;
60973;SDS011;46846;51.528;5.076;2023-06-22T03:08:09;340.50;;;323.33;;
60973;SDS011;46846;51.528;5.076;2023-06-22T03:10:35;336.73;;;319.98;;
60973;SDS011;46846;51.528;5.076;2023-06-22T03:13:00;344.70;;;327.40;;
60973;SDS011;46846;51.528;5.076;2023-06-22T03:15:26;341.02;;;324.02;;
60973;SDS011;46846;51.528;5.076;2023-06-22T03:17:54;345.17;;;327.73;;
60973;SDS011;46846;51.528;5.076;2023-06-22T03:20:20;337.15;;;320.10;;
60973;SDS011;46846;51.528;5.076;2023-06-22T03:22:45;337.38;;;320.35;;
60973;SDS011;46846;51.528;5.076;2023-06-22T03:25:11;342.30;;;324.88;;
60973;SDS011;46846;51.528;5.076;2023-06-22T03:27:40;342.92;;;325.80;;
60973;SDS011;46846;51.528;5.076;2023-06-22T03:30:07;335.98;;;319.15;;
60973;SDS011;46846;51.528;5.076;2023-06-22T03:32:34;326.23;;;309.50;;
60973;SDS011;46846;51.528;5.076;2023-06-22T03:34:59;331.90;;;315.20;;
60973;SDS011;46846;51.528;5.076;2023-06-22T03:37:25;337.00;;;319.95;;
60973;SDS011;46846;51.528;5.076;2023-06-22T03:39:51;342.38;;;325.17;;
60973;SDS011;46846;51.528;5.076;2023-06-22T03:42:17;326.48;;;310.15;;
60973;SDS011;46846;51.528;5.076;2023-06-22T03:44:43;337.02;;;320.15;;
60973;SDS011;46846;51.528;5.076;2023-06-22T03:47:08;326.33;;;310.02;;
60973;SDS011;46846;51.528;5.076;2023-06-22T03:49:34;345.80;;;328.02;;
60973;SDS011;46846;51.528;5.076;2023-06-22T03:52:00;335.50;;;318.63;;
60973;SDS011;46846;51.528;5.076;2023-06-22T03:54:28;333.55;;;316.83;;
60973;SDS011;46846;51.528;5.076;2023-06-22T03:56:54;342.25;;;325.00;;
60973;SDS011;46846;51.528;5.076;2023-06-22T03:59:19;331.73;;;314.90;;
60973;SDS011;46846;51.528;5.076;2023-06-22T04:01:45;327.58;;;311.10;;
60973;SDS011;46846;51.528;5.076;2023-06-22T04:04:11;331.55;;;314.77;;
60973;SDS011;46846;51.528;5.076;2023-06-22T04:06:37;345.45;;;328.05;;
60973;SDS011;46846;51.528;5.076;2023-06-22T04:09:03;337.60;;;320.60;;
60973;SDS011;46846;51.528;5.076;2023-06-22T04:11:28;331.27;;;314.63;;
60973;SDS011;46846;51.528;5.076;2023-06-22T04:13:53;324.48;;;307.70;;
60973;SDS011;46846;51.528;5.076;2023-06-22T04:16:19;329.38;;;312.75;;
60973;SDS011;46846;51.528;5.076;2023-06-22T04:18:44;322.25;;;306.05;;
60973;SDS011;46846;51.528;5.076;2023-06-22T04:21:10;330.77;;;314.15;;
60973;SDS011;46846;51.528;5.076;2023-06-22T04:23:35;328.38;;;311.67;;
60973;SDS011;46846;51.528;5.076;2023-06-22T04:26:01;335.40;;;318.25;;
60973;SDS011;46846;51.528;5.076;2023-06-22T04:28:26;324.42;;;307.73;;
60973;SDS011;46846;51.528;5.076;2023-06-22T04:30:52;325.30;;;309.00;;
60973;SDS011;46846;51.528;5.076;2023-06-22T04:33:17;331.40;;;314.77;;
60973;SDS011;46846;51.528;5.076;2023-06-22T04:35:45;312.67;;;296.88;;
60973;SDS011;46846;51.528;5.076;2023-06-22T04:38:14;329.02;;;312.35;;
60973;SDS011;46846;51.528;5.076;2023-06-22T04:40:39;321.08;;;304.42;;
60973;SDS011;46846;51.528;5.076;2023-06-22T04:43:05;325.45;;;309.13;;
60973;SDS011;46846;51.528;5.076;2023-06-22T04:45:31;328.08;;;311.77;;
60973;SDS011;46846;51.528;5.076;2023-06-22T04:47:57;308.95;;;293.42;;
60973;SDS011;46846;51.528;5.076;2023-06-22T04:50:23;331.80;;;314.63;;
60973;SDS011;46846;51.528;5.076;2023-06-22T04:52:49;317.45;;;301.52;;
60973;SDS011;46846;51.528;5.076;2023-06-22T04:55:15;314.85;;;298.77;;
60973;SDS011;46846;51.528;5.076;2023-06-22T04:57:43;327.67;;;311.30;;
60973;SDS011;46846;51.528;5.076;2023-06-22T05:00:19;315.05;;;299.27;;
60973;SDS011;46846;51.528;5.076;2023-06-22T05:02:48;328.70;;;312.30;;
60973;SDS011;46846;51.528;5.076;2023-06-22T05:05:14;307.20;;;291.67;;
60973;SDS011;46846;51.528;5.076;2023-06-22T05:07:43;310.67;;;295.15;;
60973;SDS011;46846;51.528;5.076;2023-06-22T05:10:13;335.33;;;318.52;;
60973;SDS011;46846;51.528;5.076;2023-06-22T05:12:40;323.27;;;307.00;;
60973;SDS011;46846;51.528;5.076;2023-06-22T05:15:09;317.52;;;301.13;;
60973;SDS011;46846;51.528;5.076;2023-06-22T05:17:35;333.20;;;316.60;;
60973;SDS011;46846;51.528;5.076;2023-06-22T05:20:01;329.30;;;312.85;;
60973;SDS011;46846;51.528;5.076;2023-06-22T05:22:31;320.13;;;304.13;;
60973;SDS011;46846;51.528;5.076;2023-06-22T05:24:56;319.25;;;303.23;;
60973;SDS011;46846;51.528;5.076;2023-06-22T05:27:22;319.08;;;302.95;;
60973;SDS011;46846;51.528;5.076;2023-06-22T05:29:47;324.27;;;307.65;;
60973;SDS011;46846;51.528;5.076;2023-06-22T05:32:13;317.95;;;301.85;;
60973;SDS011;46846;51.528;5.076;2023-06-22T05:34:38;328.60;;;311.95;;
60973;SDS011;46846;51.528;5.076;2023-06-22T05:37:04;322.00;;;305.35;;
60973;SDS011;46846;51.528;5.076;2023-06-22T05:39:29;313.95;;;298.13;;
60973;SDS011;46846;51.528;5.076;2023-06-22T05:41:55;322.67;;;306.38;;
60973;SDS011;46846;51.528;5.076;2023-06-22T05:44:20;315.10;;;299.17;;
60973;SDS011;46846;51.528;5.076;2023-06-22T05:46:45;318.98;;;302.83;;
60973;SDS011;46846;51.528;5.076;2023-06-22T05:49:12;318.90;;;302.98;;
60973;SDS011;46846;51.528;5.076;2023-06-22T05:51:38;330.80;;;314.08;;
60973;SDS011;46846;51.528;5.076;2023-06-22T05:54:03;323.45;;;307.10;;
60973;SDS011;46846;51.528;5.076;2023-06-22T05:56:29;322.65;;;306.15;;
60973;SDS011;46846;51.528;5.076;2023-06-22T05:58:54;328.38;;;311.55;;
60973;SDS011;46846;51.528;5.076;2023-06-22T06:01:20;326.98;;;310.42;;
60973;SDS011;46846;51.528;5.076;2023-06-22T06:03:46;322.65;;;306.25;;
60973;SDS011;46846;51.528;5.076;2023-06-22T06:06:11;326.42;;;310.23;;
60973;SDS011;46846;51.528;5.076;2023-06-22T06:08:37;321.35;;;304.77;;
60973;SDS011;46846;51.528;5.076;2023-06-22T06:11:03;320.80;;;304.48;;
60973;SDS011;46846;51.528;5.076;2023-06-22T06:13:29;319.00;;;302.73;;
60973;SDS011;46846;51.528;5.076;2023-06-22T06:15:54;320.45;;;304.40;;
60973;SDS011;46846;51.528;5.076;2023-06-22T06:18:20;316.58;;;300.70;;
60973;SDS011;46846;51.528;5.076;2023-06-22T06:20:46;319.52;;;302.90;;
60973;SDS011;46846;51.528;5.076;2023-06-22T06:23:11;325.13;;;308.92;;
60973;SDS011;46846;51.528;5.076;2023-06-22T06:25:37;308.85;;;293.23;;
60973;SDS011;46846;51.528;5.076;2023-06-22T06:28:02;316.25;;;299.98;;
60973;SDS011;46846;51.528;5.076;2023-06-22T06:30:28;323.40;;;306.52;;
60973;SDS011;46846;51.528;5.076;2023-06-22T06:32:54;315.30;;;299.55;;
60973;SDS011;46846;51.528;5.076;2023-06-22T06:35:19;328.00;;;311.02;;
60973;SDS011;46846;51.528;5.076;2023-06-22T06:37:47;320.55;;;304.55;;
60973;SDS011;46846;51.528;5.076;2023-06-22T06:40:14;311.38;;;295.88;;
60973;SDS011;46846;51.528;5.076;2023-06-22T06:42:41;324.92;;;308.60;;
60973;SDS011;46846;51.528;5.076;2023-06-22T06:45:11;312.30;;;296.60;;
60973;SDS011;46846;51.528;5.076;2023-06-22T06:47:38;316.15;;;299.92;;
60973;SDS011;46846;51.528;5.076;2023-06-22T06:50:05;317.88;;;301.92;;
60973;SDS011;46846;51.528;5.076;2023-06-22T06:52:31;321.38;;;305.30;;
60973;SDS011;46846;51.528;5.076;2023-06-22T06:54:56;319.80;;;302.85;;
60973;SDS011;46846;51.528;5.076;2023-06-22T06:57:22;316.95;;;301.00;;
60973;SDS011;46846;51.528;5.076;2023-06-22T06:59:48;315.48;;;299.23;;
60973;SDS011;46846;51.528;5.076;2023-06-22T07:02:14;323.63;;;307.45;;
60973;SDS011;46846;51.528;5.076;2023-06-22T07:04:40;320.60;;;303.70;;
60973;SDS011;46846;51.528;5.076;2023-06-22T07:07:05;315.42;;;299.73;;
60973;SDS011;46846;51.528;5.076;2023-06-22T07:09:31;322.35;;;305.08;;
60973;SDS011;46846;51.528;5.076;2023-06-22T07:11:56;318.40;;;301.15;;
60973;SDS011;46846;51.528;5.076;2023-06-22T07:14:21;322.75;;;306.13;;
60973;SDS011;46846;51.528;5.076;2023-06-22T07:16:47;319.42;;;302.65;;
60973;SDS011;46846;51.528;5.076;2023-06-22T07:19:12;317.55;;;301.63;;
60973;SDS011;46846;51.528;5.076;2023-06-22T07:21:38;313.48;;;297.30;;
60973;SDS011;46846;51.528;5.076;2023-06-22T07:24:04;314.40;;;298.05;;
60973;SDS011;46846;51.528;5.076;2023-06-22T07:26:31;337.70;;;320.50;;
60973;SDS011;46846;51.528;5.076;2023-06-22T07:28:56;329.35;;;312.15;;
60973;SDS011;46846;51.528;5.076;2023-06-22T07:31:23;315.27;;;298.90;;
60973;SDS011;46846;51.528;5.076;2023-06-22T07:33:49;325.83;;;309.15;;
60973;SDS011;46846;51.528;5.076;2023-06-22T07:36:16;318.58;;;302.10;;
60973;SDS011;46846;51.528;5.076;2023-06-22T07:38:42;338.92;;;321.30;;
60973;SDS011;46846;51.528;5.076;2023-06-22T07:41:08;337.88;;;319.70;;
60973;SDS011;46846;51.528;5.076;2023-06-22T07:43:33;326.48;;;309.55;;
60973;SDS011;46846;51.528;5.076;2023-06-22T07:46:01;317.80;;;301.10;;
60973;SDS011;46846;51.528;5.076;2023-06-22T07:48:30;327.65;;;310.85;;
60973;SDS011;46846;51.528;5.076;2023-06-22T07:50:56;319.02;;;301.50;;
60973;SDS011;46846;51.528;5.076;2023-06-22T07:53:21;328.10;;;311.23;;
60973;SDS011;46846;51.528;5.076;2023-06-22T07:55:48;317.65;;;301.27;;
60973;SDS011;46846;51.528;5.076;2023-06-22T07:58:13;319.38;;;303.33;;
60973;SDS011;46846;51.528;5.076;2023-06-22T08:00:40;326.13;;;309.08;;
60973;SDS011;46846;51.528;5.076;2023-06-22T08:03:06;322.77;;;306.55;;
60973;SDS011;46846;51.528;5.076;2023-06-22T08:05:32;326.33;;;309.75;;
60973;SDS011;46846;51.528;5.076;2023-06-22T08:07:57;322.25;;;305.90;;
60973;SDS011;46846;51.528;5.076;2023-06-22T08:10:22;337.98;;;320.98;;
60973;SDS011;46846;51.528;5.076;2023-06-22T08:12:48;323.13;;;306.70;;
60973;SDS011;46846;51.528;5.076;2023-06-22T08:15:14;322.58;;;306.25;;
60973;SDS011;46846;51.528;5.076;2023-06-22T08:17:39;312.88;;;296.95;;
60973;SDS011;46846;51.528;5.076;2023-06-22T08:20:05;327.52;;;310.83;;
60973;SDS011;46846;51.528;5.076;2023-06-22T08:22:37;324.98;;;307.73;;
60973;SDS011;46846;51.528;5.076;2023-06-22T08:25:03;328.10;;;311.08;;
60973;SDS011;46846;51.528;5.076;2023-06-22T08:27:30;322.25;;;305.63;;
60973;SDS011;46846;51.528;5.076;2023-06-22T08:29:59;325.50;;;308.35;;
60973;SDS011;46846;51.528;5.076;2023-06-22T08:32:25;333.63;;;316.02;;
60973;SDS011;46846;51.528;5.076;2023-06-22T08:34:53;328.17;;;311.70;;
60973;SDS011;46846;51.528;5.076;2023-06-22T08:37:19;324.23;;;307.85;;
60973;SDS011;46846;51.528;5.076;2023-06-22T08:39:45;334.02;;;317.23;;
60973;SDS011;46846;51.528;5.076;2023-06-22T08:42:11;317.63;;;301.33;;
60973;SDS011;46846;51.528;5.076;2023-06-22T08:44:36;334.17;;;316.65;;
60973;SDS011;46846;51.528;5.076;2023-06-22T08:47:02;335.85;;;318.65;;
60973;SDS011;46846;51.528;5.076;2023-06-22T08:49:28;322.15;;;305.35;;
60973;SDS011;46846;51.528;5.076;2023-06-22T08:51:54;322.63;;;305.65;;
60973;SDS011;46846;51.528;5.076;2023-06-22T08:54:21;328.38;;;310.75;;
60973;SDS011;46846;51.528;5.076;2023-06-22T08:56:47;322.60;;;305.60;;
60973;SDS011;46846;51.528;5.076;2023-06-22T08:59:12;336.40;;;319.08;;
60973;SDS011;46846;51.528;5.076;2023-06-22T09:01:38;332.02;;;315.02;;
60973;SDS011;46846;51.528;5.076;2023-06-22T09:04:03;323.90;;;307.55;;
60973;SDS011;46846;51.528;5.076;2023-06-22T09:06:31;336.15;;;319.10;;
60973;SDS011;46846;51.528;5.076;2023-06-22T09:08:56;313.45;;;297.33;;
60973;SDS011;46846;51.528;5.076;2023-06-22T09:11:24;318.73;;;302.63;;
60973;SDS011;46846;51.528;5.076;2023-06-22T09:13:50;323.20;;;305.70;;
60973;SDS011;46846;51.528;5.076;2023-06-22T09:16:15;314.70;;;298.80;;
60973;SDS011;46846;51.528;5.076;2023-06-22T09:18:41;343.00;;;325.48;;
60973;SDS011;46846;51.528;5.076;2023-06-22T09:21:06;325.73;;;309.00;;
60973;SDS011;46846;51.528;5.076;2023-06-22T09:23:32;317.88;;;301.63;;
60973;SDS011;46846;51.528;5.076;2023-06-22T09:25:57;313.35;;;297.25;;
60973;SDS011;46846;51.528;5.076;2023-06-22T09:28:23;317.85;;;301.58;;
60973;SDS011;46846;51.528;5.076;2023-06-22T09:30:48;331.08;;;314.02;;
60973;SDS011;46846;51.528;5.076;2023-06-22T09:41:31;307.02;;;291.30;;
60973;SDS011;46846;51.528;5.076;2023-06-22T09:43:56;324.23;;;307.40;;
60973;SDS011;46846;51.528;5.076;2023-06-22T09:46:22;319.08;;;302.90;;
60973;SDS011;46846;51.528;5.076;2023-06-22T09:48:50;324.55;;;307.67;;
60973;SDS011;46846;51.528;5.076;2023-06-22T09:51:15;320.98;;;304.70;;
60973;SDS011;46846;51.528;5.076;2023-06-22T09:53:41;323.88;;;307.25;;
60973;SDS011;46846;51.528;5.076;2023-06-22T09:56:06;316.98;;;300.88;;
60973;SDS011;46846;51.528;5.076;2023-06-22T09:58:32;328.05;;;311.48;;
60973;SDS011;46846;51.528;5.076;2023-06-22T10:00:57;337.85;;;320.90;;
60973;SDS011;46846;51.528;5.076;2023-06-22T10:03:23;329.30;;;312.65;;
60973;SDS011;46846;51.528;5.076;2023-06-22T10:05:48;321.85;;;304.83;;
60973;SDS011;46846;51.528;5.076;2023-06-22T10:08:13;316.35;;;300.27;;
60973;SDS011;46846;51.528;5.076;2023-06-22T10:10:39;328.40;;;311.27;;
60973;SDS011;46846;51.528;5.076;2023-06-22T10:13:10;323.77;;;307.10;;
60973;SDS011;46846;51.528;5.076;2023-06-22T10:15:36;330.55;;;313.73;;
60973;SDS011;46846;51.528;5.076;2023-06-22T10:18:02;321.92;;;304.58;;
60973;SDS011;46846;51.528;5.076;2023-06-22T10:20:27;330.15;;;313.30;;
60973;SDS011;46846;51.528;5.076;2023-06-22T10:22:53;329.65;;;312.67;;
60973;SDS011;46846;51.528;5.076;2023-06-22T10:25:18;331.48;;;313.98;;
60973;SDS011;46846;51.528;5.076;2023-06-22T10:27:44;319.95;;;303.75;;
60973;SDS011;46846;51.528;5.076;2023-06-22T10:30:10;321.40;;;304.92;;
60973;SDS011;46846;51.528;5.076;2023-06-22T10:32:40;315.70;;;299.75;;
60973;SDS011;46846;51.528;5.076;2023-06-22T10:35:08;310.38;;;294.27;;
60973;SDS011;46846;51.528;5.076;2023-06-22T10:37:35;314.35;;;298.05;;
60973;SDS011;46846;51.528;5.076;2023-06-22T10:40:01;315.75;;;299.75;;
60973;SDS011;46846;51.528;5.076;2023-06-22T10:42:27;333.42;;;316.67;;
60973;SDS011;46846;51.528;5.076;2023-06-22T10:44:52;322.20;;;306.02;;
60973;SDS011;46846;51.528;5.076;2023-06-22T10:47:18;324.08;;;307.58;;
60973;SDS011;46846;51.528;5.076;2023-06-22T10:49:43;323.17;;;306.58;;
60973;SDS011;46846;51.528;5.076;2023-06-22T10:52:08;321.27;;;304.88;;
60973;SDS011;46846;51.528;5.076;2023-06-22T10:54:34;337.90;;;321.02;;
60973;SDS011;46846;51.528;5.076;2023-06-22T10:57:01;327.63;;;310.65;;
60973;SDS011;46846;51.528;5.076;2023-06-22T10:59:27;333.42;;;316.73;;
60973;SDS011;46846;51.528;5.076;2023-06-22T11:01:53;323.25;;;307.00;;
60973;SDS011;46846;51.528;5.076;2023-06-22T11:04:20;337.98;;;320.90;;
60973;SDS011;46846;51.528;5.076;2023-06-22T11:06:45;327.85;;;311.02;;
60973;SDS011;46846;51.528;5.076;2023-06-22T11:09:11;336.70;;;319.50;;
60973;SDS011;46846;51.528;5.076;2023-06-22T11:11:36;331.73;;;315.08;;
60973;SDS011;46846;51.528;5.076;2023-06-22T11:14:02;317.05;;;301.13;;
60973;SDS011;46846;51.528;5.076;2023-06-22T11:16:27;326.05;;;309.45;;
60973;SDS011;46846;51.528;5.076;2023-06-22T11:18:53;322.83;;;306.45;;
60973;SDS011;46846;51.528;5.076;2023-06-22T11:21:18;325.77;;;309.35;;
60973;SDS011;46846;51.528;5.076;2023-06-22T11:23:44;310.10;;;294.27;;
60973;SDS011;46846;51.528;5.076;2023-06-22T11:26:10;323.30;;;306.85;;
60973;SDS011;46846;51.528;5.076;2023-06-22T11:28:35;325.48;;;308.95;;
60973;SDS011;46846;51.528;5.076;2023-06-22T11:31:01;320.27;;;304.00;;
60973;SDS011;46846;51.528;5.076;2023-06-22T11:33:26;324.60;;;307.92;;
60973;SDS011;46846;51.528;5.076;2023-06-22T11:35:52;327.75;;;311.05;;
60973;SDS011;46846;51.528;5.076;2023-06-22T11:38:17;331.10;;;314.20;;
60973;SDS011;46846;51.528;5.076;2023-06-22T11:40:43;331.85;;;315.05;;
60973;SDS011;46846;51.528;5.076;2023-06-22T11:43:08;318.25;;;301.92;;
60973;SDS011;46846;51.528;5.076;2023-06-22T11:45:34;320.60;;;304.17;;
60973;SDS011;46846;51.528;5.076;2023-06-22T11:47:59;327.80;;;311.08;;
60973;SDS011;46846;51.528;5.076;2023-06-22T11:50:24;328.75;;;312.23;;
60973;SDS011;46846;51.528;5.076;2023-06-22T11:52:50;332.67;;;315.58;;
60973;SDS011;46846;51.528;5.076;2023-06-22T11:55:17;322.70;;;306.40;;
60973;SDS011;46846;51.528;5.076;2023-06-22T11:57:53;314.90;;;298.02;;
60973;SDS011;46846;51.528;5.076;2023-06-22T12:00:20;323.58;;;307.02;;
60973;SDS011;46846;51.528;5.076;2023-06-22T12:02:48;320.15;;;303.70;;
60973;SDS011;46846;51.528;5.076;2023-06-22T12:05:14;307.90;;;291.60;;
60973;SDS011;46846;51.528;5.076;2023-06-22T12:07:40;311.38;;;294.90;;
60973;SDS011;46846;51.528;5.076;2023-06-22T12:10:05;311.33;;;295.42;;
60973;SDS011;46846;51.528;5.076;2023-06-22T12:12:31;321.55;;;305.27;;
60973;SDS011;46846;51.528;5.076;2023-06-22T12:14:56;323.08;;;306.65;;
60973;SDS011;46846;51.528;5.076;2023-06-22T12:17:21;309.73;;;293.98;;
60973;SDS011;46846;51.528;5.076;2023-06-22T12:19:47;313.63;;;297.67;;
60973;SDS011;46846;51.528;5.076;2023-06-22T12:22:12;328.13;;;311.33;;
60973;SDS011;46846;51.528;5.076;2023-06-22T12:24:38;321.35;;;305.02;;
60973;SDS011;46846;51.528;5.076;2023-06-22T12:27:03;328.63;;;311.67;;
60973;SDS011;46846;51.528;5.076;2023-06-22T12:29:29;330.05;;;312.80;;
60973;SDS011;46846;51.528;5.076;2023-06-22T12:31:54;321.20;;;304.83;;
60973;SDS011;46846;51.528;5.076;2023-06-22T12:34:20;316.42;;;299.73;;
60973;SDS011;46846;51.528;5.076;2023-06-22T12:36:45;317.65;;;301.48;;
60973;SDS011;46846;51.528;5.076;2023-06-22T12:39:13;313.80;;;297.30;;
60973;SDS011;46846;51.528;5.076;2023-06-22T12:41:38;323.67;;;306.75;;
60973;SDS011;46846;51.528;5.076;2023-06-22T12:44:04;317.85;;;301.48;;
60973;SDS011;46846;51.528;5.076;2023-06-22T12:46:29;316.10;;;300.02;;
60973;SDS011;46846;51.528;5.076;2023-06-22T12:49:01;321.77;;;305.25;;
60973;SDS011;46846;51.528;5.076;2023-06-22T12:51:27;325.27;;;308.50;;
60973;SDS011;46846;51.528;5.076;2023-06-22T12:53:52;320.55;;;303.60;;
60973;SDS011;46846;51.528;5.076;2023-06-22T12:56:18;316.50;;;300.08;;
60973;SDS011;46846;51.528;5.076;2023-06-22T12:58:43;322.92;;;306.23;;
60973;SDS011;46846;51.528;5.076;2023-06-22T13:01:09;328.42;;;311.63;;
60973;SDS011;46846;51.528;5.076;2023-06-22T13:03:34;316.38;;;299.95;;
60973;SDS011;46846;51.528;5.076;2023-06-22T13:05:59;302.20;;;286.70;;
60973;SDS011;46846;51.528;5.076;2023-06-22T13:08:25;317.58;;;301.25;;
60973;SDS011;46846;51.528;5.076;2023-06-22T13:10:50;310.08;;;294.10;;
60973;SDS011;46846;51.528;5.076;2023-06-22T13:13:16;323.23;;;306.40;;
60973;SDS011;46846;51.528;5.076;2023-06-22T13:15:41;317.60;;;301.23;;
60973;SDS011;46846;51.528;5.076;2023-06-22T13:18:08;326.00;;;309.30;;
60973;SDS011;46846;51.528;5.076;2023-06-22T13:20:33;314.05;;;297.70;;
60973;SDS011;46846;51.528;5.076;2023-06-22T13:22:58;331.55;;;314.48;;
60973;SDS011;46846;51.528;5.076;2023-06-22T13:25:24;316.83;;;300.30;;
60973;SDS011;46846;51.528;5.076;2023-06-22T13:27:51;324.25;;;307.05;;
60973;SDS011;46846;51.528;5.076;2023-06-22T13:30:17;319.52;;;303.25;;
60973;SDS011;46846;51.528;5.076;2023-06-22T13:32:42;308.75;;;292.75;;
60973;SDS011;46846;51.528;5.076;2023-06-22T13:35:08;311.10;;;295.10;;
60973;SDS011;46846;51.528;5.076;2023-06-22T13:37:34;313.52;;;297.38;;
60973;SDS011;46846;51.528;5.076;2023-06-22T13:40:00;322.50;;;305.95;;
60973;SDS011;46846;51.528;5.076;2023-06-22T13:42:28;323.73;;;307.27;;
60973;SDS011;46846;51.528;5.076;2023-06-22T13:44:53;330.90;;;314.05;;
60973;SDS011;46846;51.528;5.076;2023-06-22T13:47:19;316.60;;;300.02;;
60973;SDS011;46846;51.528;5.076;2023-06-22T13:49:44;319.58;;;303.48;;
60973;SDS011;46846;51.528;5.076;2023-06-22T13:52:09;307.90;;;292.30;;
60973;SDS011;46846;51.528;5.076;2023-06-22T13:54:37;319.50;;;303.25;;
60973;SDS011;46846;51.528;5.076;2023-06-22T13:57:03;324.42;;;307.90;;
60973;SDS011;46846;51.528;5.076;2023-06-22T13:59:29;316.20;;;300.27;;
60973;SDS011;46846;51.528;5.076;2023-06-22T14:01:54;316.67;;;300.67;;
60973;SDS011;46846;51.528;5.076;2023-06-22T14:04:21;315.88;;;299.38;;
60973;SDS011;46846;51.528;5.076;2023-06-22T14:06:49;303.52;;;288.15;;